Terminal Aerodrome Forecast
Issued by NWS Hastings, NE

Home | Current Version | Previous Version | Text Only | Print | Product List | Glossary On
Versions: 1 2 3 4 5 6 7 8 9 10 11 12 13 14 15
000
FTUS43 KGID 300520
TAFGRI
TAF
KGRI 300520Z 3006/0106 02021G29KT P6SM RA OVC020
     FM300700 01022G31KT 6SM RA OVC010
     FM301300 01025G33KT 4SM RA OVC003
     FM301500 02025G33KT 1 1/2SM RASN OVC003
     FM301900 36025G34KT 1SM -SN OVC005
     FM010100 35023G31KT 2SM -RASN OVC008=

USA.gov is the U.S. government's official web portal to all federal, state and local government web resources and services.